Time,TemperatureF,DewpointF,PressureIn,WindDirection,WindDirectionDegrees,WindSpeedMPH,WindSpeedGustMPH,Humidity,HourlyPrecipIn,Conditions,Clouds,dailyrainin,SoftwareType,DateUTC
2013-06-27 00:00:00,79.0,27.5,30.00,North,0,7.0,8.0,15,0.00,,SKC,0.00,VWS V14.01,2013-06-27 07:00:00,
2013-06-27 00:05:00,78.0,26.6,30.00,North,0,5.0,5.0,15,0.00,,SKC,0.00,VWS V14.01,2013-06-27 07:05:00,
2013-06-27 00:10:00,78.0,28.2,30.00,NNE,22,6.0,7.0,16,0.00,,SKC,0.00,VWS V14.01,2013-06-27 07:10:00,
2013-06-27 00:15:00,78.0,28.2,30.00,North,0,4.0,4.0,16,0.00,,SKC,0.00,VWS V14.01,2013-06-27 07:15:00,
2013-06-27 00:20:00,78.0,28.2,30.00,NNE,22,6.0,6.0,16,0.00,,SKC,0.00,VWS V14.01,2013-06-27 07:20:00,
2013-06-27 00:25:00,78.0,28.2,30.00,NNW,338,3.0,6.0,16,0.00,,SKC,0.00,VWS V14.01,2013-06-27 07:25:00,
2013-06-27 00:30:00,78.0,28.2,30.00,North,0,4.0,5.0,16,0.00,,SKC,0.00,VWS V14.01,2013-06-27 07:30:00,
2013-06-27 00:35:00,78.0,28.2,30.00,North,0,3.0,3.0,16,0.00,,SKC,0.00,VWS V14.01,2013-06-27 07:35:00,
2013-06-27 00:40:00,78.0,28.2,30.00,North,0,3.0,5.0,16,0.00,,SKC,0.00,VWS V14.01,2013-06-27 07:40:00,
2013-06-27 00:45:00,79.0,29.0,30.00,North,0,3.0,3.0,16,0.00,,SKC,0.00,VWS V14.01,2013-06-27 07:45:00,
2013-06-27 00:50:00,79.0,29.0,30.00,NNW,338,2.0,3.0,16,0.00,,SKC,0.00,VWS V14.01,2013-06-27 07:50:00,
2013-06-27 00:55:00,79.0,29.0,30.00,WNW,292,5.0,6.0,16,0.00,,SKC,0.00,VWS V14.01,2013-06-27 07:55:00,
2013-06-27 01:00:00,79.0,30.5,30.00,NW,315,5.0,6.0,17,0.00,,SKC,0.00,VWS V14.01,2013-06-27 08:00:00,
2013-06-27 01:05:00,81.0,30.6,30.00,NW,315,5.0,6.0,16,0.00,,SKC,0.00,VWS V14.01,2013-06-27 08:05:00,
2013-06-27 01:10:00,81.0,30.6,30.00,NNW,338,3.0,3.0,16,0.00,,SKC,0.00,VWS V14.01,2013-06-27 08:10:00,
2013-06-27 01:15:00,82.0,29.8,30.01,North,0,2.0,3.0,15,0.00,,SKC,0.00,VWS V14.01,2013-06-27 08:15:00,
2013-06-27 01:20:00,82.0,29.8,30.01,WNW,292,3.0,5.0,15,0.00,,SKC,0.00,VWS V14.01,2013-06-27 08:20:00,
2013-06-27 01:25:00,80.0,31.3,30.01,West,270,5.0,5.0,17,0.00,,SKC,0.00,VWS V14.01,2013-06-27 08:25:00,
2013-06-27 01:30:00,80.0,31.3,30.01,NW,315,4.0,5.0,17,0.00,,SKC,0.00,VWS V14.01,2013-06-27 08:30:00,
2013-06-27 01:35:00,79.0,30.5,30.01,WNW,292,5.0,5.0,17,0.00,,SKC,0.00,VWS V14.01,2013-06-27 08:35:00,
2013-06-27 01:40:00,80.0,29.8,30.01,NW,315,4.0,5.0,16,0.00,,SKC,0.00,VWS V14.01,2013-06-27 08:40:00,
2013-06-27 01:45:00,81.0,30.6,30.01,WNW,292,5.0,5.0,16,0.00,,SKC,0.00,VWS V14.01,2013-06-27 08:45:00,
2013-06-27 01:50:00,81.0,32.1,30.01,WNW,292,5.0,5.0,17,0.00,,SKC,0.00,VWS V14.01,2013-06-27 08:50:00,
2013-06-27 01:56:00,81.0,33.5,30.01,West,270,4.0,4.0,18,0.00,,SKC,0.00,VWS V14.01,2013-06-27 08:56:00,
2013-06-27 02:01:00,81.0,34.9,30.01,WNW,292,1.0,1.0,19,0.00,,SKC,0.00,VWS V14.01,2013-06-27 09:01:00,
2013-06-27 02:06:00,81.0,32.1,30.01,East,90,4.0,4.0,17,0.00,,SKC,0.00,VWS V14.01,2013-06-27 09:06:00,
2013-06-27 02:11:00,78.0,29.7,30.01,NNE,22,1.0,2.0,17,0.00,,SKC,0.00,VWS V14.01,2013-06-27 09:11:00,
2013-06-27 02:16:00,77.0,30.3,30.01,ENE,68,0.0,0.0,18,0.00,,SKC,0.00,VWS V14.01,2013-06-27 09:16:00,
2013-06-27 02:21:00,76.0,30.8,30.02,NE,45,0.0,0.0,19,0.00,,SKC,0.00,VWS V14.01,2013-06-27 09:21:00,
2013-06-27 02:26:00,76.0,29.5,30.02,NE,45,3.0,4.0,18,0.00,,SKC,0.00,VWS V14.01,2013-06-27 09:26:00,
2013-06-27 02:31:00,76.0,30.8,30.02,North,0,2.0,2.0,19,0.00,,SKC,0.00,VWS V14.01,2013-06-27 09:31:00,
2013-06-27 02:36:00,76.0,29.5,30.02,NNE,22,5.0,5.0,18,0.00,,SKC,0.00,VWS V14.01,2013-06-27 09:36:00,
2013-06-27 02:41:00,76.0,29.5,30.02,NNW,338,4.0,6.0,18,0.00,,SKC,0.00,VWS V14.01,2013-06-27 09:41:00,
2013-06-27 02:46:00,76.0,29.5,30.02,NNE,22,10.0,10.0,18,0.00,,SKC,0.00,VWS V14.01,2013-06-27 09:46:00,
2013-06-27 02:51:00,76.0,29.5,30.02,NNE,22,5.0,6.0,18,0.00,,SKC,0.00,VWS V14.01,2013-06-27 09:51:00,
2013-06-27 02:56:00,76.0,29.5,30.02,North,0,3.0,5.0,18,0.00,,SKC,0.00,VWS V14.01,2013-06-27 09:56:00,
2013-06-27 03:01:00,76.0,30.8,30.02,NNW,338,4.0,5.0,19,0.00,,SKC,0.00,VWS V14.01,2013-06-27 10:01:00,
2013-06-27 03:06:00,76.0,30.8,30.02,North,0,4.0,5.0,19,0.00,,SKC,0.00,VWS V14.01,2013-06-27 10:06:00,
2013-06-27 03:11:00,76.0,30.8,30.02,North,0,2.0,2.0,19,0.00,,SKC,0.00,VWS V14.01,2013-06-27 10:11:00,
2013-06-27 03:16:00,76.0,30.8,30.02,NE,45,2.0,3.0,19,0.00,,SKC,0.00,VWS V14.01,2013-06-27 10:16:00,
2013-06-27 03:21:00,75.0,31.2,30.02,NNE,22,6.0,7.0,20,0.00,,SKC,0.00,VWS V14.01,2013-06-27 10:21:00,
2013-06-27 03:26:00,75.0,30.0,30.02,NNE,22,3.0,4.0,19,0.00,,SKC,0.00,VWS V14.01,2013-06-27 10:26:00,
2013-06-27 03:31:00,75.0,30.0,30.02,NNE,22,6.0,6.0,19,0.00,,SKC,0.00,VWS V14.01,2013-06-27 10:31:00,
2013-06-27 03:36:00,75.0,30.0,30.02,NE,45,4.0,4.0,19,0.00,,SKC,0.00,VWS V14.01,2013-06-27 10:36:00,
2013-06-27 03:41:00,76.0,30.8,30.02,NNE,22,3.0,3.0,19,0.00,,SKC,0.00,VWS V14.01,2013-06-27 10:41:00,
2013-06-27 03:46:00,76.0,30.8,30.02,North,0,5.0,5.0,19,0.00,,SKC,0.00,VWS V14.01,2013-06-27 10:46:00,
2013-06-27 03:51:00,77.0,31.6,30.02,North,0,3.0,3.0,19,0.00,,SKC,0.00,VWS V14.01,2013-06-27 10:51:00,
2013-06-27 03:56:00,77.0,31.6,30.02,NNE,22,5.0,5.0,19,0.00,,SKC,0.00,VWS V14.01,2013-06-27 10:56:00,
2013-06-27 04:01:00,77.0,31.6,30.02,North,0,2.0,3.0,19,0.00,,SKC,0.00,VWS V14.01,2013-06-27 11:01:00,
2013-06-27 04:06:00,77.0,30.3,30.02,NNW,338,5.0,8.0,18,0.00,,SKC,0.00,VWS V14.01,2013-06-27 11:06:00,
2013-06-27 04:11:00,77.0,30.3,30.02,NNW,338,5.0,6.0,18,0.00,,SKC,0.00,VWS V14.01,2013-06-27 11:11:00,
2013-06-27 04:16:00,77.0,31.6,30.02,NNE,22,5.0,5.0,19,0.00,,SKC,0.00,VWS V14.01,2013-06-27 11:16:00,
2013-06-27 04:21:00,77.0,31.6,30.02,NNE,22,3.0,5.0,19,0.00,,SKC,0.00,VWS V14.01,2013-06-27 11:21:00,
2013-06-27 04:26:00,77.0,31.6,30.02,North,0,5.0,5.0,19,0.00,,SKC,0.00,VWS V14.01,2013-06-27 11:26:00,
2013-06-27 04:31:00,78.0,32.4,30.02,NNE,22,3.0,3.0,19,0.00,,SKC,0.00,VWS V14.01,2013-06-27 11:31:00,
2013-06-27 04:36:00,78.0,32.4,30.02,NNE,22,4.0,5.0,19,0.00,,SKC,0.00,VWS V14.01,2013-06-27 11:36:00,
2013-06-27 04:41:00,78.0,32.4,30.02,NNE,22,5.0,6.0,19,0.00,,SKC,0.00,VWS V14.01,2013-06-27 11:41:00,
2013-06-27 04:46:00,78.0,33.7,30.03,North,0,2.0,3.0,20,0.00,,SKC,0.00,VWS V14.01,2013-06-27 11:46:00,
2013-06-27 04:51:00,78.0,33.7,30.03,North,0,3.0,4.0,20,0.00,,SKC,0.00,VWS V14.01,2013-06-27 11:51:00,
2013-06-27 04:56:00,78.0,33.7,30.02,NNW,338,4.0,4.0,20,0.00,,SKC,0.00,VWS V14.01,2013-06-27 11:56:00,
2013-06-27 05:01:00,78.0,34.9,30.03,North,0,3.0,3.0,21,0.00,,SKC,0.00,VWS V14.01,2013-06-27 12:01:00,
2013-06-27 05:06:00,78.0,34.9,30.03,North,0,3.0,4.0,21,0.00,,SKC,0.00,VWS V14.01,2013-06-27 12:06:00,
2013-06-27 05:11:00,78.0,36.1,30.03,NNW,338,3.0,3.0,22,0.00,,SKC,0.00,VWS V14.01,2013-06-27 12:11:00,
2013-06-27 05:16:00,77.0,35.3,30.04,NNW,338,2.0,3.0,22,0.00,,SKC,0.00,VWS V14.01,2013-06-27 12:16:00,
2013-06-27 05:21:00,77.0,35.3,30.04,NNE,22,0.0,0.0,22,0.00,,SKC,0.00,VWS V14.01,2013-06-27 12:21:00,
2013-06-27 05:26:00,77.0,35.3,30.05,South,180,0.0,0.0,22,0.00,,SKC,0.00,VWS V14.01,2013-06-27 12:26:00,
2013-06-27 05:31:00,76.0,34.5,30.05,SSW,202,0.0,0.0,22,0.00,,SKC,0.00,VWS V14.01,2013-06-27 12:31:00,
2013-06-27 05:36:00,75.0,33.6,30.05,South,180,0.0,0.0,22,0.00,,SKC,0.00,VWS V14.01,2013-06-27 12:36:00,
2013-06-27 05:42:00,74.0,33.9,30.05,South,180,0.0,0.0,23,0.00,,SKC,0.00,VWS V14.01,2013-06-27 12:42:00,
2013-06-27 05:47:00,73.0,33.0,30.05,South,180,0.0,0.0,23,0.00,,SKC,0.00,VWS V14.01,2013-06-27 12:47:00,
2013-06-27 05:52:00,73.0,34.1,30.05,ENE,68,0.0,0.0,24,0.00,,SKC,0.00,VWS V14.01,2013-06-27 12:52:00,
2013-06-27 05:57:00,73.0,36.1,30.05,ENE,68,0.0,0.0,26,0.00,,SKC,0.00,VWS V14.01,2013-06-27 12:57:00,
2013-06-27 06:02:00,74.0,35.0,30.06,NE,45,0.0,0.0,24,0.00,,SKC,0.00,VWS V14.01,2013-06-27 13:02:00,
2013-06-27 06:07:00,74.0,36.0,30.06,North,0,0.0,0.0,25,0.00,,SKC,0.00,VWS V14.01,2013-06-27 13:07:00,
2013-06-27 06:12:00,75.0,36.8,30.06,North,0,3.0,3.0,25,0.00,,SKC,0.00,VWS V14.01,2013-06-27 13:12:00,
2013-06-27 06:17:00,75.0,36.8,30.06,NNE,22,0.0,1.0,25,0.00,,SKC,0.00,VWS V14.01,2013-06-27 13:17:00,
2013-06-27 06:22:00,75.0,37.8,30.06,North,0,0.0,0.0,26,0.00,,SKC,0.00,VWS V14.01,2013-06-27 13:22:00,
2013-06-27 06:27:00,76.0,37.7,30.06,North,0,0.0,0.0,25,0.00,,SKC,0.00,VWS V14.01,2013-06-27 13:27:00,
2013-06-27 06:32:00,76.0,38.7,30.06,NNE,22,0.0,0.0,26,0.00,,SKC,0.00,VWS V14.01,2013-06-27 13:32:00,
2013-06-27 06:37:00,77.0,40.5,30.06,NNE,22,0.0,0.0,27,0.00,,SKC,0.00,VWS V14.01,2013-06-27 13:37:00,
2013-06-27 06:42:00,77.0,40.5,30.07,NNE,22,0.0,0.0,27,0.00,,SKC,0.00,VWS V14.01,2013-06-27 13:42:00,
2013-06-27 06:47:00,78.0,42.3,30.07,North,0,0.0,0.0,28,0.00,,SKC,0.00,VWS V14.01,2013-06-27 13:47:00,
2013-06-27 06:52:00,79.0,43.2,30.07,North,0,0.0,0.0,28,0.00,,SKC,0.00,VWS V14.01,2013-06-27 13:52:00,
2013-06-27 06:57:00,80.0,44.0,30.07,North,0,0.0,0.0,28,0.00,,SKC,0.00,VWS V14.01,2013-06-27 13:57:00,
2013-06-27 07:02:00,80.0,43.0,30.07,North,0,0.0,0.0,27,0.00,,SKC,0.00,VWS V14.01,2013-06-27 14:02:00,
2013-06-27 07:07:00,80.0,44.0,30.07,WNW,292,0.0,0.0,28,0.00,,SKC,0.00,VWS V14.01,2013-06-27 14:07:00,
2013-06-27 07:12:00,81.0,44.9,30.07,WNW,292,0.0,0.0,28,0.00,,SKC,0.00,VWS V14.01,2013-06-27 14:12:00,
2013-06-27 07:17:00,81.0,43.9,30.07,West,270,0.0,0.0,27,0.00,,SKC,0.00,VWS V14.01,2013-06-27 14:17:00,
2013-06-27 07:22:00,83.0,43.6,30.07,WSW,248,2.0,3.0,25,0.00,,SKC,0.00,VWS V14.01,2013-06-27 14:22:00,
2013-06-27 07:27:00,83.0,43.6,30.08,WSW,248,4.0,5.0,25,0.00,,SKC,0.00,VWS V14.01,2013-06-27 14:27:00,
2013-06-27 07:32:00,83.0,44.6,30.08,West,270,2.0,3.0,26,0.00,,SKC,0.00,VWS V14.01,2013-06-27 14:32:00,
2013-06-27 07:37:00,84.0,45.5,30.08,SSW,202,1.0,1.0,26,0.00,,SKC,0.00,VWS V14.01,2013-06-27 14:37:00,
2013-06-27 07:42:00,84.0,44.4,30.08,SSW,202,0.0,0.0,25,0.00,,SKC,0.00,VWS V14.01,2013-06-27 14:42:00,
2013-06-27 07:47:00,84.0,44.4,30.08,SSW,202,1.0,1.0,25,0.00,,SKC,0.00,VWS V14.01,2013-06-27 14:47:00,
2013-06-27 07:52:00,83.0,43.6,30.08,SSW,202,0.0,0.0,25,0.00,,SKC,0.00,VWS V14.01,2013-06-27 14:52:00,
2013-06-27 07:57:00,83.0,43.6,30.08,SSE,158,1.0,1.0,25,0.00,,SKC,0.00,VWS V14.01,2013-06-27 14:57:00,
2013-06-27 08:02:00,83.0,42.5,30.08,SW,225,0.0,0.0,24,0.00,,SKC,0.00,VWS V14.01,2013-06-27 15:02:00,
2013-06-27 08:07:00,83.0,42.5,30.08,SW,225,3.0,3.0,24,0.00,,SKC,0.00,VWS V14.01,2013-06-27 15:07:00,
2013-06-27 08:12:00,84.0,43.4,30.08,SW,225,0.0,0.0,24,0.00,,SKC,0.00,VWS V14.01,2013-06-27 15:12:00,
2013-06-27 08:17:00,84.0,43.4,30.08,WSW,248,4.0,5.0,24,0.00,,SKC,0.00,VWS V14.01,2013-06-27 15:17:00,
2013-06-27 08:22:00,85.0,44.2,30.08,WSW,248,3.0,3.0,24,0.00,,SKC,0.00,VWS V14.01,2013-06-27 15:22:00,
2013-06-27 08:27:00,86.0,45.0,30.08,SW,225,2.0,3.0,24,0.00,,SKC,0.00,VWS V14.01,2013-06-27 15:27:00,
2013-06-27 08:32:00,87.0,43.6,30.08,West,270,4.0,5.0,22,0.00,,SKC,0.00,VWS V14.01,2013-06-27 15:32:00,
2013-06-27 08:37:00,87.0,43.6,30.07,WNW,292,5.0,5.0,22,0.00,,SKC,0.00,VWS V14.01,2013-06-27 15:37:00,
2013-06-27 08:42:00,87.0,42.4,30.08,West,270,5.0,6.0,21,0.00,,SKC,0.00,VWS V14.01,2013-06-27 15:42:00,
2013-06-27 08:47:00,88.0,43.2,30.08,SW,225,0.0,1.0,21,0.00,,SKC,0.00,VWS V14.01,2013-06-27 15:47:00,
2013-06-27 08:52:00,88.0,43.2,30.08,WSW,248,4.0,5.0,21,0.00,,SKC,0.00,VWS V14.01,2013-06-27 15:52:00,
2013-06-27 08:57:00,89.0,42.8,30.07,WNW,292,7.0,7.0,20,0.00,,SKC,0.00,VWS V14.01,2013-06-27 15:57:00,
2013-06-27 09:02:00,89.0,42.8,30.07,West,270,7.0,8.0,20,0.00,,SKC,0.00,VWS V14.01,2013-06-27 16:02:00,
2013-06-27 09:07:00,90.0,43.6,30.07,SW,225,5.0,5.0,20,0.00,,SKC,0.00,VWS V14.01,2013-06-27 16:07:00,
2013-06-27 09:12:00,90.0,43.6,30.07,WSW,248,6.0,7.0,20,0.00,,SKC,0.00,VWS V14.01,2013-06-27 16:12:00,
2013-06-27 09:17:00,90.0,42.2,30.07,SSW,202,4.0,5.0,19,0.00,,SKC,0.00,VWS V14.01,2013-06-27 16:17:00,
2013-06-27 09:22:00,91.0,43.1,30.07,WSW,248,3.0,5.0,19,0.00,,SKC,0.00,VWS V14.01,2013-06-27 16:22:00,
2013-06-27 09:27:00,91.0,43.1,30.07,WSW,248,4.0,6.0,19,0.00,,SKC,0.00,VWS V14.01,2013-06-27 16:27:00,
2013-06-27 09:32:00,92.0,43.9,30.06,SSW,202,5.0,6.0,19,0.00,,SKC,0.00,VWS V14.01,2013-06-27 16:32:00,
2013-06-27 09:37:00,92.0,43.9,30.07,West,270,5.0,7.0,19,0.00,,SKC,0.00,VWS V14.01,2013-06-27 16:37:00,
2013-06-27 09:42:00,92.0,43.9,30.07,West,270,6.0,6.0,19,0.00,,SKC,0.00,VWS V14.01,2013-06-27 16:42:00,
2013-06-27 09:47:00,93.0,44.7,30.06,WSW,248,10.0,10.0,19,0.00,,SKC,0.00,VWS V14.01,2013-06-27 16:47:00,
2013-06-27 09:52:00,93.0,43.3,30.07,West,270,8.0,8.0,18,0.00,,SKC,0.00,VWS V14.01,2013-06-27 16:52:00,
2013-06-27 09:57:00,93.0,43.3,30.07,West,270,7.0,8.0,18,0.00,,SKC,0.00,VWS V14.01,2013-06-27 16:57:00,
2013-06-27 10:02:00,94.0,44.1,30.07,WSW,248,7.0,8.0,18,0.00,,SKC,0.00,VWS V14.01,2013-06-27 17:02:00,
2013-06-27 10:08:00,94.0,44.1,30.07,West,270,11.0,11.0,18,0.00,,SKC,0.00,VWS V14.01,2013-06-27 17:08:00,
2013-06-27 10:13:00,94.0,44.1,30.07,SW,225,3.0,3.0,18,0.00,,SKC,0.00,VWS V14.01,2013-06-27 17:13:00,
2013-06-27 10:18:00,94.0,42.6,30.07,SW,225,3.0,3.0,17,0.00,,SKC,0.00,VWS V14.01,2013-06-27 17:18:00,
2013-06-27 10:23:00,94.0,42.6,30.07,NNW,338,8.0,10.0,17,0.00,,SKC,0.00,VWS V14.01,2013-06-27 17:23:00,
2013-06-27 10:28:00,94.0,42.6,30.07,WSW,248,10.0,10.0,17,0.00,,SKC,0.00,VWS V14.01,2013-06-27 17:28:00,
2013-06-27 10:33:00,94.0,44.1,30.06,NW,315,1.0,2.0,18,0.00,,SKC,0.00,VWS V14.01,2013-06-27 17:33:00,
2013-06-27 10:38:00,95.0,43.4,30.06,WSW,248,10.0,13.0,17,0.00,,SKC,0.00,VWS V14.01,2013-06-27 17:38:00,
2013-06-27 10:43:00,96.0,42.6,30.06,West,270,5.0,8.0,16,0.00,,SKC,0.00,VWS V14.01,2013-06-27 17:43:00,
2013-06-27 10:48:00,95.0,41.8,30.06,WNW,292,9.0,10.0,16,0.00,,SKC,0.00,VWS V14.01,2013-06-27 17:48:00,
2013-06-27 10:53:00,95.0,41.8,30.06,West,270,6.0,8.0,16,0.00,,SKC,0.00,VWS V14.01,2013-06-27 17:53:00,
2013-06-27 10:58:00,95.0,41.8,30.06,WSW,248,5.0,5.0,16,0.00,,SKC,0.00,VWS V14.01,2013-06-27 17:58:00,
2013-06-27 11:04:00,97.0,43.4,30.06,WNW,292,10.0,10.0,16,0.00,,SKC,0.00,VWS V14.01,2013-06-27 18:04:00,
2013-06-27 11:09:00,98.0,40.7,30.06,North,0,1.0,2.0,14,0.00,,SKC,0.00,VWS V14.01,2013-06-27 18:09:00,
2013-06-27 11:14:00,98.0,40.7,30.06,East,90,3.0,3.0,14,0.00,,SKC,0.00,VWS V14.01,2013-06-27 18:14:00,
2013-06-27 11:19:00,98.0,40.7,30.06,North,0,3.0,3.0,14,0.00,,SKC,0.00,VWS V14.01,2013-06-27 18:19:00,
2013-06-27 11:24:00,98.0,40.7,30.06,NNE,22,3.0,4.0,14,0.00,,SKC,0.00,VWS V14.01,2013-06-27 18:24:00,
2013-06-27 11:29:00,99.0,41.5,30.06,NW,315,3.0,5.0,14,0.00,,SKC,0.00,VWS V14.01,2013-06-27 18:29:00,
2013-06-27 11:34:00,99.0,41.5,30.06,WNW,292,1.0,2.0,14,0.00,,SKC,0.00,VWS V14.01,2013-06-27 18:34:00,
2013-06-27 11:39:00,100.0,40.4,30.06,NE,45,1.0,2.0,13,0.00,,SKC,0.00,VWS V14.01,2013-06-27 18:39:00,
2013-06-27 11:44:00,100.0,40.4,30.05,West,270,2.0,2.0,13,0.00,,SKC,0.00,VWS V14.01,2013-06-27 18:44:00,
2013-06-27 11:49:00,101.0,41.2,30.05,NNE,22,3.0,5.0,13,0.00,,SKC,0.00,VWS V14.01,2013-06-27 18:49:00,
2013-06-27 11:54:00,101.0,41.2,30.05,ENE,68,2.0,2.0,13,0.00,,SKC,0.00,VWS V14.01,2013-06-27 18:54:00,
2013-06-27 11:59:00,100.0,40.4,30.05,WNW,292,8.0,8.0,13,0.00,,SKC,0.00,VWS V14.01,2013-06-27 18:59:00,
2013-06-27 12:04:00,99.0,39.6,30.05,WSW,248,3.0,3.0,13,0.00,,SKC,0.00,VWS V14.01,2013-06-27 19:04:00,
2013-06-27 12:09:00,99.0,39.6,30.05,NW,315,5.0,8.0,13,0.00,,SKC,0.00,VWS V14.01,2013-06-27 19:09:00,
2013-06-27 12:14:00,101.0,41.2,30.05,NE,45,5.0,6.0,13,0.00,,SKC,0.00,VWS V14.01,2013-06-27 19:14:00,
2013-06-27 12:19:00,102.0,42.0,30.04,West,270,13.0,13.0,13,0.00,,SKC,0.00,VWS V14.01,2013-06-27 19:19:00,
2013-06-27 12:24:00,101.0,41.2,30.04,WNW,292,6.0,6.0,13,0.00,,SKC,0.00,VWS V14.01,2013-06-27 19:24:00,
2013-06-27 12:29:00,101.0,41.2,30.04,WNW,292,2.0,3.0,13,0.00,,SKC,0.00,VWS V14.01,2013-06-27 19:29:00,
2013-06-27 12:34:00,102.0,42.0,30.04,NW,315,0.0,0.0,13,0.00,,SKC,0.00,VWS V14.01,2013-06-27 19:34:00,
2013-06-27 12:39:00,101.0,41.2,30.04,WNW,292,4.0,6.0,13,0.00,,SKC,0.00,VWS V14.01,2013-06-27 19:39:00,
2013-06-27 12:44:00,100.0,40.4,30.04,WNW,292,5.0,6.0,13,0.00,,SKC,0.00,VWS V14.01,2013-06-27 19:44:00,
2013-06-27 12:49:00,101.0,41.2,30.04,SW,225,8.0,10.0,13,0.00,,SKC,0.00,VWS V14.01,2013-06-27 19:49:00,
2013-06-27 12:51:00,100.0,40.4,30.03,West,270,7.0,10.0,13,0.00,,SKC,0.00,VWS V14.01,2013-06-27 19:51:00,
2013-06-27 12:56:00,101.0,41.2,30.03,WNW,292,6.0,6.0,13,0.00,,SKC,0.00,VWS V14.01,2013-06-27 19:56:00,
2013-06-27 13:01:00,102.0,42.0,30.03,NW,315,10.0,11.0,13,0.00,,SKC,0.00,VWS V14.01,2013-06-27 20:01:00,
2013-06-27 13:06:00,100.0,40.4,30.03,WNW,292,9.0,10.0,13,0.00,,SKC,0.00,VWS V14.01,2013-06-27 20:06:00,
2013-06-27 13:11:00,101.0,41.2,30.03,WSW,248,10.0,11.0,13,0.00,,SKC,0.00,VWS V14.01,2013-06-27 20:11:00,
2013-06-27 13:16:00,102.0,39.9,30.03,NW,315,7.0,8.0,12,0.00,,SKC,0.00,VWS V14.01,2013-06-27 20:16:00,
2013-06-27 13:22:00,102.0,42.0,30.02,West,270,13.0,14.0,13,0.00,,SKC,0.00,VWS V14.01,2013-06-27 20:22:00,
2013-06-27 13:27:00,101.0,39.1,30.02,WNW,292,8.0,10.0,12,0.00,,SKC,0.00,VWS V14.01,2013-06-27 20:27:00,
2013-06-27 13:33:00,102.0,39.9,30.02,NW,315,4.0,6.0,12,0.00,,SKC,0.00,VWS V14.01,2013-06-27 20:33:00,
2013-06-27 13:38:00,102.0,39.9,30.01,WSW,248,9.0,11.0,12,0.00,,SKC,0.00,VWS V14.01,2013-06-27 20:38:00,
2013-06-27 13:43:00,102.0,39.9,30.01,WNW,292,10.0,11.0,12,0.00,,SKC,0.00,VWS V14.01,2013-06-27 20:43:00,
2013-06-27 13:48:00,102.0,39.9,30.01,SSW,202,8.0,8.0,12,0.00,,SKC,0.00,VWS V14.01,2013-06-27 20:48:00,
2013-06-27 13:53:00,101.0,39.1,30.01,West,270,8.0,11.0,12,0.00,,SKC,0.00,VWS V14.01,2013-06-27 20:53:00,
2013-06-27 13:58:00,102.0,39.9,30.01,WNW,292,8.0,11.0,12,0.00,,SKC,0.00,VWS V14.01,2013-06-27 20:58:00,
2013-06-27 14:04:00,102.0,39.9,30.01,NW,315,11.0,17.0,12,0.00,,SKC,0.00,VWS V14.01,2013-06-27 21:04:00,
2013-06-27 14:10:00,102.0,39.9,30.00,West,270,8.0,10.0,12,0.00,,SKC,0.00,VWS V14.01,2013-06-27 21:10:00,
2013-06-27 14:15:00,101.0,39.1,30.00,WSW,248,6.0,7.0,12,0.00,,SKC,0.00,VWS V14.01,2013-06-27 21:15:00,
2013-06-27 14:20:00,102.0,39.9,30.00,West,270,5.0,6.0,12,0.00,,SKC,0.00,VWS V14.01,2013-06-27 21:20:00,
2013-06-27 14:25:00,102.0,39.9,30.00,WNW,292,9.0,14.0,12,0.00,,SKC,0.00,VWS V14.01,2013-06-27 21:25:00,
2013-06-27 14:30:00,102.0,39.9,30.00,NW,315,5.0,9.0,12,0.00,,SKC,0.00,VWS V14.01,2013-06-27 21:30:00,
2013-06-27 14:35:00,102.0,39.9,30.00,WSW,248,13.0,16.0,12,0.00,,SKC,0.00,VWS V14.01,2013-06-27 21:35:00,
2013-06-27 14:42:00,101.0,39.1,30.00,WNW,292,11.0,16.0,12,0.00,,SKC,0.00,VWS V14.01,2013-06-27 21:42:00,
2013-06-27 14:48:00,102.0,39.9,30.00,WNW,292,5.0,10.0,12,0.00,,SKC,0.00,VWS V14.01,2013-06-27 21:48:00,
2013-06-27 14:55:00,102.0,39.9,29.99,WSW,248,8.0,9.0,12,0.00,,SKC,0.00,VWS V14.01,2013-06-27 21:55:00,
2013-06-27 15:00:00,103.0,40.7,29.99,West,270,6.0,8.0,12,0.00,,SKC,0.00,VWS V14.01,2013-06-27 22:00:00,
2013-06-27 15:05:00,103.0,40.7,29.99,SW,225,6.0,8.0,12,0.00,,SKC,0.00,VWS V14.01,2013-06-27 22:05:00,
2013-06-27 15:11:00,102.0,39.9,29.99,WNW,292,6.0,7.0,12,0.00,,SKC,0.00,VWS V14.01,2013-06-27 22:11:00,
2013-06-27 15:16:00,102.0,39.9,29.99,West,270,12.0,14.0,12,0.00,,SKC,0.00,VWS V14.01,2013-06-27 22:16:00,
2013-06-27 15:21:00,103.0,40.7,29.99,WNW,292,6.0,6.0,12,0.00,,SKC,0.00,VWS V14.01,2013-06-27 22:21:00,
2013-06-27 15:27:00,103.0,40.7,29.98,WSW,248,8.0,11.0,12,0.00,,SKC,0.00,VWS V14.01,2013-06-27 22:27:00,
2013-06-27 15:32:00,102.0,42.0,29.98,WSW,248,9.0,11.0,13,0.00,,SKC,0.00,VWS V14.01,2013-06-27 22:32:00,
2013-06-27 15:37:00,102.0,42.0,29.98,WNW,292,6.0,8.0,13,0.00,,SKC,0.00,VWS V14.01,2013-06-27 22:37:00,
2013-06-27 15:42:00,102.0,42.0,29.98,West,270,8.0,10.0,13,0.00,,SKC,0.00,VWS V14.01,2013-06-27 22:42:00,
2013-06-27 15:47:00,102.0,42.0,29.98,WNW,292,13.0,13.0,13,0.00,,SKC,0.00,VWS V14.01,2013-06-27 22:47:00,
2013-06-27 15:53:00,102.0,42.0,29.97,West,270,8.0,10.0,13,0.00,,SKC,0.00,VWS V14.01,2013-06-27 22:53:00,
2013-06-27 16:00:00,103.0,42.7,29.97,West,270,8.0,14.0,13,0.00,,SKC,0.00,VWS V14.01,2013-06-27 23:00:00,
2013-06-27 16:07:00,103.0,42.7,29.97,WNW,292,13.0,13.0,13,0.00,,SKC,0.00,VWS V14.01,2013-06-27 23:07:00,
2013-06-27 16:12:00,102.0,42.0,29.96,West,270,11.0,11.0,13,0.00,,SKC,0.00,VWS V14.01,2013-06-27 23:12:00,
2013-06-27 16:17:00,102.0,42.0,29.96,WNW,292,11.0,11.0,13,0.00,,SKC,0.00,VWS V14.01,2013-06-27 23:17:00,
2013-06-27 16:22:00,101.0,41.2,29.96,WNW,292,9.0,9.0,13,0.00,,SKC,0.00,VWS V14.01,2013-06-27 23:22:00,
2013-06-27 16:27:00,102.0,42.0,29.96,WNW,292,12.0,14.0,13,0.00,,SKC,0.00,VWS V14.01,2013-06-27 23:27:00,
2013-06-27 16:33:00,102.0,39.9,29.96,SW,225,10.0,13.0,12,0.00,,SKC,0.00,VWS V14.01,2013-06-27 23:33:00,
2013-06-27 16:38:00,102.0,39.9,29.96,WNW,292,10.0,14.0,12,0.00,,SKC,0.00,VWS V14.01,2013-06-27 23:38:00,
2013-06-27 16:43:00,102.0,39.9,29.96,NW,315,10.0,13.0,12,0.00,,SKC,0.00,VWS V14.01,2013-06-27 23:43:00,
2013-06-27 16:49:00,102.0,39.9,29.95,WSW,248,9.0,11.0,12,0.00,,SKC,0.00,VWS V14.01,2013-06-27 23:49:00,
2013-06-27 16:54:00,102.0,37.7,29.95,West,270,8.0,8.0,11,0.00,,SKC,0.00,VWS V14.01,2013-06-27 23:54:00,
2013-06-27 17:00:00,101.0,39.1,29.95,West,270,9.0,9.0,12,0.00,,SKC,0.00,VWS V14.01,2013-06-28 00:00:00,
2013-06-27 17:05:00,102.0,39.9,29.95,West,270,9.0,10.0,12,0.00,,SKC,0.00,VWS V14.01,2013-06-28 00:05:00,
2013-06-27 17:10:00,102.0,39.9,29.95,WNW,292,5.0,6.0,12,0.00,,SKC,0.00,VWS V14.01,2013-06-28 00:10:00,
2013-06-27 17:15:00,101.0,39.1,29.95,WNW,292,11.0,11.0,12,0.00,,SKC,0.00,VWS V14.01,2013-06-28 00:15:00,
2013-06-27 17:20:00,101.0,39.1,29.95,West,270,14.0,14.0,12,0.00,,SKC,0.00,VWS V14.01,2013-06-28 00:20:00,
2013-06-27 17:26:00,102.0,39.9,29.95,WNW,292,7.0,8.0,12,0.00,,SKC,0.00,VWS V14.01,2013-06-28 00:26:00,
2013-06-27 17:32:00,102.0,39.9,29.95,WNW,292,5.0,6.0,12,0.00,,SKC,0.00,VWS V14.01,2013-06-28 00:32:00,
2013-06-27 17:37:00,101.0,39.1,29.95,West,270,9.0,13.0,12,0.00,,SKC,0.00,VWS V14.01,2013-06-28 00:37:00,
2013-06-27 17:44:00,101.0,39.1,29.95,WSW,248,7.0,10.0,12,0.00,,SKC,0.00,VWS V14.01,2013-06-28 00:44:00,
2013-06-27 17:49:00,101.0,39.1,29.95,WSW,248,6.0,7.0,12,0.00,,SKC,0.00,VWS V14.01,2013-06-28 00:49:00,
2013-06-27 17:54:00,101.0,39.1,29.95,WSW,248,9.0,14.0,12,0.00,,SKC,0.00,VWS V14.01,2013-06-28 00:54:00,
2013-06-27 17:59:00,101.0,39.1,29.95,NW,315,8.0,8.0,12,0.00,,SKC,0.00,VWS V14.01,2013-06-28 00:59:00,
2013-06-27 18:06:00,101.0,41.2,29.96,WNW,292,6.0,6.0,13,0.00,,SKC,0.00,VWS V14.01,2013-06-28 01:06:00,
2013-06-27 18:13:00,100.0,38.3,29.96,NW,315,8.0,8.0,12,0.00,,SKC,0.00,VWS V14.01,2013-06-28 01:13:00,
2013-06-27 18:18:00,101.0,39.1,29.96,WNW,292,5.0,5.0,12,0.00,,SKC,0.00,VWS V14.01,2013-06-28 01:18:00,
2013-06-27 18:24:00,100.0,38.3,29.96,West,270,8.0,10.0,12,0.00,,SKC,0.00,VWS V14.01,2013-06-28 01:24:00,
2013-06-27 18:30:00,100.0,40.4,29.96,West,270,6.0,7.0,13,0.00,,SKC,0.00,VWS V14.01,2013-06-28 01:30:00,
2013-06-27 18:35:00,100.0,40.4,29.96,WNW,292,8.0,8.0,13,0.00,,SKC,0.00,VWS V14.01,2013-06-28 01:35:00,
2013-06-27 18:40:00,100.0,38.3,29.96,WNW,292,5.0,7.0,12,0.00,,SKC,0.00,VWS V14.01,2013-06-28 01:40:00,
2013-06-27 18:45:00,100.0,38.3,29.96,WNW,292,8.0,8.0,12,0.00,,SKC,0.00,VWS V14.01,2013-06-28 01:45:00,
2013-06-27 18:50:00,99.0,37.6,29.96,NW,315,8.0,10.0,12,0.00,,SKC,0.00,VWS V14.01,2013-06-28 01:50:00,
2013-06-27 18:56:00,99.0,37.6,29.96,WNW,292,8.0,8.0,12,0.00,,SKC,0.00,VWS V14.01,2013-06-28 01:56:00,
2013-06-27 19:01:00,99.0,37.6,29.96,NW,315,6.0,6.0,12,0.00,,SKC,0.00,VWS V14.01,2013-06-28 02:01:00,
2013-06-27 19:07:00,98.0,36.8,29.96,NNW,338,6.0,10.0,12,0.00,,SKC,0.00,VWS V14.01,2013-06-28 02:07:00,
2013-06-27 19:12:00,98.0,36.8,29.96,NW,315,7.0,7.0,12,0.00,,SKC,0.00,VWS V14.01,2013-06-28 02:12:00,
2013-06-27 19:17:00,97.0,36.0,29.96,NNW,338,5.0,5.0,12,0.00,,SKC,0.00,VWS V14.01,2013-06-28 02:17:00,
2013-06-27 19:23:00,97.0,36.0,29.96,NNW,338,3.0,4.0,12,0.00,,SKC,0.00,VWS V14.01,2013-06-28 02:23:00,
2013-06-27 19:29:00,97.0,36.0,29.96,NW,315,6.0,7.0,12,0.00,,SKC,0.00,VWS V14.01,2013-06-28 02:29:00,
2013-06-27 19:35:00,96.0,37.3,29.96,NW,315,3.0,3.0,13,0.00,,SKC,0.00,VWS V14.01,2013-06-28 02:35:00,
2013-06-27 19:40:00,96.0,37.3,29.96,NW,315,5.0,5.0,13,0.00,,SKC,0.00,VWS V14.01,2013-06-28 02:40:00,
2013-06-27 19:46:00,96.0,37.3,29.96,NW,315,5.0,6.0,13,0.00,,SKC,0.00,VWS V14.01,2013-06-28 02:46:00,
2013-06-27 19:51:00,95.0,36.5,29.96,NW,315,4.0,5.0,13,0.00,,SKC,0.00,VWS V14.01,2013-06-28 02:51:00,
2013-06-27 19:56:00,95.0,36.5,29.96,NW,315,4.0,5.0,13,0.00,,SKC,0.00,VWS V14.01,2013-06-28 02:56:00,
2013-06-27 20:01:00,94.0,37.6,29.96,NW,315,3.0,3.0,14,0.00,,SKC,0.00,VWS V14.01,2013-06-28 03:01:00,
2013-06-27 20:07:00,94.0,37.6,29.96,NNW,338,1.0,2.0,14,0.00,,SKC,0.00,VWS V14.01,2013-06-28 03:07:00,
2013-06-27 20:13:00,94.0,37.6,29.96,NNW,338,1.0,1.0,14,0.00,,SKC,0.00,VWS V14.01,2013-06-28 03:13:00,
2013-06-27 20:19:00,94.0,37.6,29.97,North,0,1.0,1.0,14,0.00,,SKC,0.00,VWS V14.01,2013-06-28 03:19:00,
2013-06-27 20:25:00,94.0,39.4,29.97,NNW,338,1.0,1.0,15,0.00,,SKC,0.00,VWS V14.01,2013-06-28 03:25:00,
2013-06-27 20:30:00,93.0,38.6,29.97,NNW,338,2.0,3.0,15,0.00,,SKC,0.00,VWS V14.01,2013-06-28 03:30:00,
2013-06-27 20:35:00,93.0,38.6,29.97,NW,315,1.0,1.0,15,0.00,,SKC,0.00,VWS V14.01,2013-06-28 03:35:00,
2013-06-27 20:40:00,93.0,38.6,29.97,NNW,338,2.0,3.0,15,0.00,,SKC,0.00,VWS V14.01,2013-06-28 03:40:00,
2013-06-27 20:46:00,93.0,38.6,29.97,NNW,338,0.0,1.0,15,0.00,,SKC,0.00,VWS V14.01,2013-06-28 03:46:00,
2013-06-27 20:52:00,93.0,38.6,29.97,NNW,338,3.0,3.0,15,0.00,,SKC,0.00,VWS V14.01,2013-06-28 03:52:00,
2013-06-27 20:57:00,92.0,37.8,29.97,NNW,338,3.0,4.0,15,0.00,,SKC,0.00,VWS V14.01,2013-06-28 03:57:00,
2013-06-27 21:01:00,92.0,37.8,29.97,NW,315,0.0,1.0,15,0.00,,SKC,0.00,VWS V14.01,2013-06-28 04:01:00,
2013-06-27 21:02:00,92.0,37.8,29.97,NW,315,0.0,1.0,15,0.00,,SKC,0.00,VWS V14.01,2013-06-28 04:02:00,
2013-06-27 21:04:00,92.0,37.8,29.98,NW,315,2.0,2.0,15,0.00,,SKC,0.00,VWS V14.01,2013-06-28 04:04:00,
2013-06-27 21:06:00,92.0,37.8,29.98,NNW,338,3.0,3.0,15,0.00,,SKC,0.00,VWS V14.01,2013-06-28 04:06:00,
2013-06-27 21:07:00,92.0,37.8,29.98,NNW,338,3.0,3.0,15,0.00,,SKC,0.00,VWS V14.01,2013-06-28 04:07:00,
2013-06-27 21:13:00,92.0,37.8,29.98,NW,315,3.0,3.0,15,0.00,,SKC,0.00,VWS V14.01,2013-06-28 04:13:00,
2013-06-27 21:19:00,92.0,37.8,29.98,NNW,338,0.0,0.0,15,0.00,,SKC,0.00,VWS V14.01,2013-06-28 04:19:00,
2013-06-27 21:24:00,91.0,38.6,29.98,NNE,22,2.0,2.0,16,0.00,,SKC,0.00,VWS V14.01,2013-06-28 04:24:00,
2013-06-27 21:29:00,90.0,37.8,29.99,NNE,22,3.0,4.0,16,0.00,,SKC,0.00,VWS V14.01,2013-06-28 04:29:00,
2013-06-27 21:34:00,89.0,38.6,29.99,North,0,3.0,3.0,17,0.00,,SKC,0.00,VWS V14.01,2013-06-28 04:34:00,
2013-06-27 21:40:00,88.0,37.8,29.99,North,0,3.0,4.0,17,0.00,,SKC,0.00,VWS V14.01,2013-06-28 04:40:00,
2013-06-27 21:46:00,87.0,37.0,29.98,North,0,5.0,5.0,17,0.00,,SKC,0.00,VWS V14.01,2013-06-28 04:46:00,
2013-06-27 21:51:00,87.0,37.0,29.98,North,0,5.0,6.0,17,0.00,,SKC,0.00,VWS V14.01,2013-06-28 04:51:00,
2013-06-27 21:56:00,87.0,37.0,29.98,North,0,3.0,4.0,17,0.00,,SKC,0.00,VWS V14.01,2013-06-28 04:56:00,
2013-06-27 22:01:00,87.0,37.0,29.98,NNE,22,5.0,5.0,17,0.00,,SKC,0.00,VWS V14.01,2013-06-28 05:01:00,
2013-06-27 22:06:00,87.0,37.0,29.98,NNE,22,4.0,5.0,17,0.00,,SKC,0.00,VWS V14.01,2013-06-28 05:06:00,
2013-06-27 22:12:00,87.0,37.0,29.98,North,0,3.0,3.0,17,0.00,,SKC,0.00,VWS V14.01,2013-06-28 05:12:00,
2013-06-27 22:18:00,87.0,37.0,29.99,North,0,3.0,4.0,17,0.00,,SKC,0.00,VWS V14.01,2013-06-28 05:18:00,
2013-06-27 22:23:00,87.0,37.0,29.98,North,0,4.0,5.0,17,0.00,,SKC,0.00,VWS V14.01,2013-06-28 05:23:00,
2013-06-27 22:28:00,87.0,37.0,29.99,NNE,22,5.0,5.0,17,0.00,,SKC,0.00,VWS V14.01,2013-06-28 05:28:00,
2013-06-27 22:33:00,87.0,37.0,29.98,NE,45,5.0,5.0,17,0.00,,SKC,0.00,VWS V14.01,2013-06-28 05:33:00,
2013-06-27 22:38:00,87.0,37.0,29.98,North,0,4.0,5.0,17,0.00,,SKC,0.00,VWS V14.01,2013-06-28 05:38:00,
2013-06-27 22:44:00,86.0,36.2,29.98,NE,45,6.0,6.0,17,0.00,,SKC,0.00,VWS V14.01,2013-06-28 05:44:00,
2013-06-27 22:50:00,86.0,36.2,29.98,NNE,22,3.0,4.0,17,0.00,,SKC,0.00,VWS V14.01,2013-06-28 05:50:00,
2013-06-27 22:55:00,86.0,36.2,29.99,NNW,338,4.0,6.0,17,0.00,,SKC,0.00,VWS V14.01,2013-06-28 05:55:00,
2013-06-27 23:00:00,86.0,36.2,29.99,North,0,4.0,4.0,17,0.00,,SKC,0.00,VWS V14.01,2013-06-28 06:00:00,
2013-06-27 23:05:00,86.0,36.2,29.99,North,0,3.0,3.0,17,0.00,,SKC,0.00,VWS V14.01,2013-06-28 06:05:00,
2013-06-27 23:10:00,86.0,36.2,29.98,North,0,3.0,4.0,17,0.00,,SKC,0.00,VWS V14.01,2013-06-28 06:10:00,
2013-06-27 23:16:00,86.0,36.2,29.98,North,0,3.0,3.0,17,0.00,,SKC,0.00,VWS V14.01,2013-06-28 06:16:00,
2013-06-27 23:22:00,86.0,36.2,29.98,NNE,22,2.0,4.0,17,0.00,,SKC,0.00,VWS V14.01,2013-06-28 06:22:00,
2013-06-27 23:28:00,86.0,36.2,29.98,NNE,22,6.0,6.0,17,0.00,,SKC,0.00,VWS V14.01,2013-06-28 06:28:00,
2013-06-27 23:34:00,86.0,34.6,29.99,North,0,8.0,10.0,16,0.00,,SKC,0.00,VWS V14.01,2013-06-28 06:34:00,
2013-06-27 23:39:00,86.0,34.6,29.98,NNW,338,3.0,3.0,16,0.00,,SKC,0.00,VWS V14.01,2013-06-28 06:39:00,
2013-06-27 23:44:00,86.0,34.6,29.98,North,0,2.0,3.0,16,0.00,,SKC,0.00,VWS V14.01,2013-06-28 06:44:00,
2013-06-27 23:49:00,86.0,34.6,29.98,NNE,22,4.0,4.0,16,0.00,,SKC,0.00,VWS V14.01,2013-06-28 06:49:00,
2013-06-27 23:55:00,86.0,34.6,29.98,North,0,3.0,4.0,16,0.00,,SKC,0.00,VWS V14.01,2013-06-28 06:55:00,